createdAt,value
2022-08-07T00:00:31.171Z,18.69
2022-08-07T00:02:57.745Z,18.62
2022-08-07T00:05:25.085Z,18.64
2022-08-07T00:07:59.797Z,18.50
2022-08-07T00:10:29.842Z,18.57
2022-08-07T00:13:02.285Z,18.57
2022-08-07T00:15:46.457Z,18.45
2022-08-07T00:18:21.003Z,18.44
2022-08-07T00:20:51.265Z,18.46
2022-08-07T00:23:18.643Z,18.43
2022-08-07T00:25:52.090Z,18.38
2022-08-07T00:28:33.187Z,18.37
2022-08-07T00:31:12.813Z,18.45
2022-08-07T00:33:43.408Z,18.33
2022-08-07T00:36:14.115Z,18.27
2022-08-07T00:38:40.835Z,18.13
2022-08-07T00:41:10.040Z,18.20
2022-08-07T00:44:01.535Z,18.19
2022-08-07T00:46:29.043Z,18.03
2022-08-07T00:48:55.791Z,18.06
2022-08-07T00:51:22.327Z,17.95
2022-08-07T00:53:55.892Z,17.86
2022-08-07T00:56:30.247Z,17.87
2022-08-07T00:59:01.315Z,17.82
2022-08-07T01:01:28.620Z,17.80
2022-08-07T01:04:09.074Z,17.85
2022-08-07T01:06:35.662Z,17.78
2022-08-07T01:09:03.532Z,17.70
2022-08-07T01:12:23.903Z,17.68
2022-08-07T01:14:21.134Z,17.63
2022-08-07T01:16:49.007Z,17.53
2022-08-07T01:19:19.644Z,17.47
2022-08-07T01:21:53.376Z,17.54
2022-08-07T01:24:24.839Z,17.52
2022-08-07T01:26:52.676Z,17.45
2022-08-07T01:29:24.165Z,17.45
2022-08-07T01:31:55.699Z,17.45
2022-08-07T01:34:30.809Z,17.47
2022-08-07T01:37:00.697Z,17.40
2022-08-07T01:39:41.350Z,17.37
2022-08-07T01:42:38.411Z,17.42
2022-08-07T01:45:18.312Z,17.31
2022-08-07T01:48:20.529Z,17.26
2022-08-07T01:50:43.075Z,17.13
2022-08-07T01:53:20.989Z,17.09
2022-08-07T01:55:58.613Z,17.07
2022-08-07T01:58:33.035Z,17.40
2022-08-07T02:01:59.236Z,17.12
2022-08-07T02:04:03.296Z,17.07
2022-08-07T02:06:35.510Z,17.07
2022-08-07T02:09:07.628Z,17.00
2022-08-07T02:12:03.747Z,16.85
2022-08-07T02:14:35.847Z,16.87
2022-08-07T02:17:13.027Z,16.89
2022-08-07T02:20:04.473Z,16.76
2022-08-07T02:22:33.110Z,16.68
2022-08-07T02:25:00.752Z,16.68
2022-08-07T02:27:34.116Z,16.64
2022-08-07T02:30:07.120Z,16.67
2022-08-07T02:32:39.400Z,16.56
2022-08-07T02:36:30.672Z,16.57
2022-08-07T02:38:13.859Z,16.37
2022-08-07T02:40:44.198Z,16.44
2022-08-07T02:43:15.363Z,16.51
2022-08-07T02:45:58.955Z,16.52
2022-08-07T02:48:30.898Z,16.50
2022-08-07T02:51:06.613Z,16.43
2022-08-07T02:53:38.853Z,16.35
2022-08-07T02:56:21.128Z,16.35
2022-08-07T02:58:51.548Z,16.33
2022-08-07T03:01:36.008Z,16.30
2022-08-07T03:04:12.600Z,16.26
2022-08-07T03:06:48.126Z,16.23
2022-08-07T03:09:42.273Z,16.14
2022-08-07T03:12:05.871Z,16.11
2022-08-07T03:14:36.331Z,16.08
2022-08-07T03:17:04.928Z,16.10
2022-08-07T03:19:37.137Z,15.96
2022-08-07T03:22:06.979Z,16.06
2022-08-07T03:24:34.862Z,16.03
2022-08-07T03:27:06.179Z,15.92
2022-08-07T03:29:53.271Z,16.05
2022-08-07T03:32:26.932Z,15.98
2022-08-07T03:35:16.617Z,16.22
2022-08-07T03:37:53.982Z,15.86
2022-08-07T03:40:24.189Z,15.88
2022-08-07T03:43:00.582Z,15.80
2022-08-07T03:45:31.387Z,15.73
2022-08-07T03:48:10.156Z,15.79
2022-08-07T03:50:38.884Z,15.70
2022-08-07T03:53:10.395Z,15.60
2022-08-07T03:55:57.378Z,15.68
2022-08-07T03:59:05.587Z,15.60
2022-08-07T04:01:14.485Z,15.48
2022-08-07T04:03:49.697Z,15.57
2022-08-07T04:06:36.358Z,15.57
2022-08-07T04:09:15.329Z,15.56
2022-08-07T04:12:25.701Z,15.53
2022-08-07T04:14:38.531Z,15.43
2022-08-07T04:18:11.241Z,15.45
2022-08-07T04:19:58.738Z,15.49
2022-08-07T04:22:29.091Z,15.44
2022-08-07T04:25:01.426Z,15.69
2022-08-07T04:27:35.519Z,15.47
2022-08-07T04:30:11.748Z,15.35
2022-08-07T04:32:58.235Z,15.40
2022-08-07T04:35:27.356Z,15.27
2022-08-07T04:38:06.808Z,15.28
2022-08-07T04:40:51.465Z,15.29
2022-08-07T04:44:11.331Z,15.17
2022-08-07T04:46:34.239Z,15.16
2022-08-07T04:49:38.792Z,15.27
2022-08-07T04:52:51.270Z,15.27
2022-08-07T04:58:24.118Z,15.25
2022-08-07T04:58:49.568Z,15.15
2022-08-07T05:01:30.784Z,15.27
2022-08-07T05:04:56.977Z,15.32
2022-08-07T05:07:55.548Z,15.15
2022-08-07T05:10:33.186Z,15.29
2022-08-07T05:14:55.126Z,15.25
2022-08-07T05:16:07.243Z,15.19
2022-08-07T05:18:39.997Z,15.27
2022-08-07T05:21:11.743Z,15.22
2022-08-07T05:23:48.179Z,15.24
2022-08-07T05:26:24.044Z,15.31
2022-08-07T05:28:59.084Z,15.26
2022-08-07T05:31:37.811Z,15.33
2022-08-07T05:34:12.469Z,15.27
2022-08-07T05:36:48.975Z,15.22
2022-08-07T05:40:14.346Z,15.34
2022-08-07T05:42:33.362Z,15.37
2022-08-07T05:45:14.092Z,15.37
2022-08-07T05:48:01.937Z,15.34
2022-08-07T05:50:34.237Z,15.43
2022-08-07T05:53:02.536Z,15.47
2022-08-07T05:56:03.004Z,15.45
2022-08-07T05:58:36.146Z,15.47
2022-08-07T06:01:05.966Z,15.49
2022-08-07T06:03:54.030Z,15.50
2022-08-07T06:06:29.854Z,15.57
2022-08-07T06:09:04.655Z,15.60
2022-08-07T06:11:33.268Z,15.68
2022-08-07T06:14:12.999Z,15.71
2022-08-07T06:16:56.341Z,15.75
2022-08-07T06:19:51.819Z,15.79
2022-08-07T06:22:23.333Z,15.78
2022-08-07T06:25:01.236Z,15.94
2022-08-07T06:27:59.798Z,16.01
2022-08-07T06:30:31.768Z,15.92
2022-08-07T06:33:03.729Z,15.98
2022-08-07T06:35:45.470Z,15.98
2022-08-07T06:38:20.123Z,15.92
2022-08-07T06:40:53.346Z,16.04
2022-08-07T06:43:24.831Z,16.04
2022-08-07T06:46:11.587Z,16.09
2022-08-07T06:48:41.978Z,16.10
2022-08-07T06:51:30.934Z,16.21
2022-08-07T06:55:32.641Z,16.26
2022-08-07T06:56:51.407Z,16.30
2022-08-07T07:00:12.146Z,16.30
2022-08-07T07:02:48.223Z,16.31
2022-08-07T07:05:13.816Z,16.33
2022-08-07T07:08:06.334Z,16.41
2022-08-07T07:10:35.327Z,16.43
2022-08-07T07:13:17.020Z,16.59
2022-08-07T07:16:09.876Z,16.50
2022-08-07T07:18:47.889Z,16.52
2022-08-07T07:22:04.193Z,16.63
2022-08-07T07:24:23.056Z,16.69
2022-08-07T07:26:53.929Z,16.81
2022-08-07T07:29:39.837Z,16.83
2022-08-07T07:32:14.056Z,16.93
2022-08-07T07:34:48.599Z,16.98
2022-08-07T07:37:44.469Z,17.04
2022-08-07T07:40:10.214Z,17.16
2022-08-07T07:42:43.849Z,17.24
2022-08-07T07:45:19.157Z,17.30
2022-08-07T07:47:53.340Z,17.31
2022-08-07T07:50:33.878Z,17.37
2022-08-07T07:53:20.535Z,17.45
2022-08-07T07:55:57.919Z,17.59
2022-08-07T07:58:40.339Z,17.55
2022-08-07T08:02:02.513Z,17.62
2022-08-07T08:04:10.511Z,17.61
2022-08-07T08:06:51.008Z,17.75
2022-08-07T08:09:22.716Z,17.79
2022-08-07T08:12:03.006Z,17.85
2022-08-07T08:14:34.475Z,17.95
2022-08-07T08:17:55.708Z,18.05
2022-08-07T08:20:17.118Z,18.08
2022-08-07T08:23:08.462Z,18.20
2022-08-07T08:25:58.212Z,18.30
2022-08-07T08:28:38.720Z,18.34
2022-08-07T08:31:14.862Z,18.46
2022-08-07T08:33:49.630Z,18.46
2022-08-07T08:36:29.614Z,18.58
2022-08-07T08:39:01.949Z,18.63
2022-08-07T08:41:58.649Z,18.85
2022-08-07T08:44:37.280Z,18.79
2022-08-07T08:47:47.291Z,18.91
2022-08-07T08:50:38.782Z,19.02
2022-08-07T08:53:31.385Z,19.03
2022-08-07T08:56:12.149Z,19.15
2022-08-07T08:58:54.314Z,19.24
2022-08-07T09:01:40.185Z,19.24
2022-08-07T09:04:38.813Z,19.31
2022-08-07T09:07:34.151Z,19.44
2022-08-07T09:10:34.011Z,19.52
2022-08-07T09:13:14.812Z,19.60
2022-08-07T09:16:22.154Z,19.71
2022-08-07T09:19:51.608Z,19.81
2022-08-07T09:24:28.837Z,19.98
2022-08-07T09:25:17.395Z,20.10
2022-08-07T09:28:05.042Z,20.15
2022-08-07T09:30:55.109Z,20.29
2022-08-07T09:33:40.827Z,20.32
2022-08-07T09:36:20.170Z,20.36
2022-08-07T09:38:54.556Z,20.41
2022-08-07T09:41:58.633Z,20.59
2022-08-07T09:44:58.641Z,20.72
2022-08-07T09:47:58.326Z,20.67
2022-08-07T09:50:46.225Z,20.73
2022-08-07T09:53:15.620Z,20.71
2022-08-07T09:56:03.933Z,20.89
2022-08-07T09:58:51.121Z,21.00
2022-08-07T10:01:59.120Z,20.95
2022-08-07T10:04:47.612Z,21.01
2022-08-07T10:08:00.817Z,21.13
2022-08-07T10:10:29.968Z,21.26
2022-08-07T10:13:55.470Z,21.16
2022-08-07T10:16:34.665Z,21.43
2022-08-07T10:19:21.192Z,21.49
2022-08-07T10:22:16.003Z,21.46
2022-08-07T10:24:55.882Z,21.65
2022-08-07T10:27:51.340Z,21.81
2022-08-07T10:30:35.192Z,21.87
2022-08-07T10:33:23.736Z,21.86
2022-08-07T10:37:05.520Z,22.09
2022-08-07T10:40:30.254Z,22.01
2022-08-07T10:43:19.360Z,22.07
2022-08-07T10:46:00.667Z,22.15
2022-08-07T10:48:54.852Z,22.37
2022-08-07T10:51:39.235Z,22.35
2022-08-07T10:54:42.732Z,22.45
2022-08-07T10:57:34.020Z,22.70
2022-08-07T11:00:39.466Z,22.78
2022-08-07T11:03:51.216Z,22.96
2022-08-07T11:06:28.849Z,23.09
2022-08-07T11:10:07.174Z,23.20
2022-08-07T11:12:43.338Z,23.30
2022-08-07T11:15:17.879Z,23.41
2022-08-07T11:17:56.500Z,23.39
2022-08-07T11:20:56.080Z,23.48
2022-08-07T11:23:45.353Z,23.62
2022-08-07T11:26:21.928Z,23.60
2022-08-07T11:28:58.756Z,23.73
2022-08-07T11:31:41.754Z,23.78
2022-08-07T11:34:24.686Z,23.58
2022-08-07T11:37:11.590Z,23.54
2022-08-07T11:40:02.016Z,23.58
2022-08-07T11:42:40.843Z,23.56
2022-08-07T11:45:20.348Z,23.51
2022-08-07T11:48:02.622Z,23.64
2022-08-07T11:50:57.827Z,23.62
2022-08-07T11:53:35.350Z,23.82
2022-08-07T11:56:26.853Z,23.90
2022-08-07T12:00:12.465Z,23.87
2022-08-07T12:02:52.195Z,23.91
2022-08-07T12:05:49.178Z,24.10
2022-08-07T12:08:34.562Z,24.13
2022-08-07T12:11:21.019Z,24.32
2022-08-07T12:14:19.126Z,24.50
2022-08-07T12:16:53.171Z,24.37
2022-08-07T12:19:35.333Z,24.16
2022-08-07T12:22:38.898Z,24.37
2022-08-07T12:26:00.939Z,24.53
2022-08-07T12:28:09.624Z,24.76
2022-08-07T12:30:46.676Z,24.74
2022-08-07T12:33:28.567Z,25.01
2022-08-07T12:36:02.164Z,25.32
2022-08-07T12:38:42.774Z,25.27
2022-08-07T12:41:11.468Z,25.47
2022-08-07T12:43:58.767Z,25.35
2022-08-07T12:46:55.412Z,25.23
2022-08-07T12:49:51.044Z,25.18
2022-08-07T12:52:59.223Z,25.47
2022-08-07T12:55:41.361Z,25.33
2022-08-07T12:58:35.421Z,25.58
2022-08-07T13:01:28.048Z,25.68
2022-08-07T13:04:32.652Z,25.95
2022-08-07T13:08:12.050Z,25.90
2022-08-07T13:10:38.086Z,25.98
2022-08-07T13:13:48.630Z,26.27
2022-08-07T13:16:27.082Z,26.23
2022-08-07T13:19:21.732Z,26.17
2022-08-07T13:22:19.553Z,26.07
2022-08-07T13:25:02.484Z,26.28
2022-08-07T13:28:12.481Z,26.46
2022-08-07T13:30:48.673Z,26.35
2022-08-07T13:34:34.443Z,26.62
2022-08-07T13:36:39.744Z,26.86
2022-08-07T13:39:28.594Z,26.44
2022-08-07T13:42:14.616Z,26.70
2022-08-07T13:45:11.773Z,26.49
2022-08-07T13:48:05.879Z,26.72
2022-08-07T13:50:33.175Z,26.72
2022-08-07T13:53:05.205Z,26.81
2022-08-07T13:55:37.035Z,26.68
2022-08-07T13:58:56.144Z,27.08
2022-08-07T14:01:26.271Z,27.28
2022-08-07T14:04:06.929Z,27.42
2022-08-07T14:06:36.927Z,27.40
2022-08-07T14:09:16.998Z,27.50
2022-08-07T14:12:00.922Z,27.60
2022-08-07T14:14:42.020Z,27.66
2022-08-07T14:17:32.375Z,27.82
2022-08-07T14:20:40.153Z,28.00
2022-08-07T14:23:08.530Z,28.14
2022-08-07T14:25:47.942Z,27.91
2022-08-07T14:28:17.531Z,27.70
2022-08-07T14:30:52.123Z,27.77
2022-08-07T14:33:22.359Z,27.46
2022-08-07T14:35:55.697Z,27.82
2022-08-07T14:38:30.750Z,28.04
2022-08-07T14:41:04.944Z,27.98
2022-08-07T14:43:58.617Z,27.90
2022-08-07T14:54:58.646Z,28.33
2022-08-07T14:57:54.677Z,28.23
2022-08-07T15:00:29.662Z,28.02
2022-08-07T15:02:59.345Z,28.07
2022-08-07T15:05:30.349Z,28.07
2022-08-07T15:07:59.925Z,27.91
2022-08-07T15:10:29.862Z,28.06
2022-08-07T15:13:01.673Z,27.92
2022-08-07T15:15:41.952Z,27.97
2022-08-07T15:18:14.479Z,27.95
2022-08-07T15:21:03.946Z,28.07
2022-08-07T15:26:36.242Z,28.67
2022-08-07T15:30:04.546Z,28.58
2022-08-07T15:31:57.749Z,28.84
2022-08-07T15:34:50.462Z,28.90
2022-08-07T15:37:28.705Z,28.91
2022-08-07T15:40:35.027Z,29.07
2022-08-07T15:43:10.834Z,29.14
2022-08-07T15:46:03.528Z,29.12
2022-08-07T15:49:04.048Z,29.34
2022-08-07T15:54:16.669Z,29.51
2022-08-07T15:56:45.986Z,29.46
2022-08-07T15:59:17.354Z,29.38
2022-08-07T16:02:02.373Z,29.17
2022-08-07T16:04:32.920Z,29.24
2022-08-07T16:07:04.756Z,29.09
2022-08-07T16:09:52.188Z,29.43
2022-08-07T16:13:17.738Z,29.14
2022-08-07T16:16:47.987Z,29.00
2022-08-07T16:19:42.653Z,29.05
2022-08-07T16:22:33.665Z,28.98
2022-08-07T16:25:52.612Z,29.10
2022-08-07T16:29:18.384Z,28.75
2022-08-07T16:31:50.901Z,28.88
2022-08-07T16:34:48.305Z,29.02
2022-08-07T16:38:05.230Z,29.13
2022-08-07T16:40:31.992Z,29.28
2022-08-07T16:44:05.552Z,29.28
2022-08-07T16:47:05.921Z,29.23
2022-08-07T16:50:20.777Z,29.35
2022-08-07T16:52:55.781Z,29.11
2022-08-07T16:55:29.176Z,28.89
2022-08-07T16:59:10.163Z,29.04
2022-08-07T17:01:41.147Z,28.59
2022-08-07T17:04:24.522Z,28.46
2022-08-07T17:07:03.447Z,28.46
2022-08-07T17:10:06.975Z,28.63
2022-08-07T17:12:48.125Z,28.50
2022-08-07T17:15:44.377Z,28.42
2022-08-07T17:18:38.413Z,28.40
2022-08-07T17:21:18.723Z,28.19
2022-08-07T17:23:54.805Z,28.19
2022-08-07T17:26:36.942Z,28.25
2022-08-07T17:30:15.931Z,28.42
2022-08-07T17:34:09.491Z,28.58
2022-08-07T17:36:13.653Z,28.64
2022-08-07T17:38:55.352Z,28.51
2022-08-07T17:42:02.664Z,28.47
2022-08-07T17:44:33.582Z,28.31
2022-08-07T17:47:38.554Z,28.27
2022-08-07T17:50:30.827Z,28.36
2022-08-07T17:53:08.073Z,28.19
2022-08-07T17:56:15.428Z,28.17
2022-08-07T17:58:56.843Z,28.05
2022-08-07T18:01:48.361Z,28.10
2022-08-07T18:04:34.857Z,28.07
2022-08-07T18:07:20.607Z,27.67
2022-08-07T18:10:06.110Z,27.77
2022-08-07T18:13:11.701Z,27.82
2022-08-07T18:16:12.470Z,27.56
2022-08-07T18:21:03.530Z,27.44
2022-08-07T18:22:02.725Z,27.32
2022-08-07T18:24:36.520Z,27.36
2022-08-07T18:27:12.493Z,27.07
2022-08-07T18:30:31.098Z,27.17
2022-08-07T18:33:15.591Z,27.11
2022-08-07T18:36:14.061Z,26.84
2022-08-07T18:40:06.482Z,26.91
2022-08-07T18:42:27.901Z,26.61
2022-08-07T18:45:40.257Z,26.62
2022-08-07T18:48:02.568Z,26.61
2022-08-07T18:50:39.456Z,26.59
2022-08-07T18:53:21.110Z,26.42
2022-08-07T18:56:07.641Z,26.53
2022-08-07T18:59:47.704Z,26.41
2022-08-07T19:02:42.335Z,26.22
2022-08-07T19:05:22.722Z,26.24
2022-08-07T19:07:57.522Z,26.05
2022-08-07T19:10:31.946Z,25.90
2022-08-07T19:13:23.079Z,25.89
2022-08-07T19:17:00.667Z,25.81
2022-08-07T19:19:42.987Z,25.82
2022-08-07T19:22:31.317Z,25.80
2022-08-07T19:25:06.432Z,25.67
2022-08-07T19:28:58.354Z,25.47
2022-08-07T19:31:01.927Z,25.48
2022-08-07T19:33:16.013Z,25.37
2022-08-07T19:35:53.685Z,25.36
2022-08-07T19:38:23.483Z,25.38
2022-08-07T19:40:58.539Z,25.35
2022-08-07T19:43:48.638Z,25.16
2022-08-07T19:46:22.312Z,25.16
2022-08-07T19:49:02.925Z,25.05
2022-08-07T19:51:51.968Z,25.19
2022-08-07T19:54:32.983Z,25.00
2022-08-07T19:58:02.755Z,24.95
2022-08-07T19:59:59.413Z,24.83
2022-08-07T20:02:39.891Z,24.77
2022-08-07T20:06:00.365Z,24.75
2022-08-07T20:08:30.127Z,24.72
2022-08-07T20:11:10.291Z,24.61
2022-08-07T20:13:50.168Z,24.60
2022-08-07T20:16:32.204Z,24.46
2022-08-07T20:19:10.555Z,24.40
2022-08-07T20:21:46.643Z,24.38
2022-08-07T20:24:35.894Z,24.43
2022-08-07T20:27:11.839Z,24.26
2022-08-07T20:29:56.734Z,24.11
2022-08-07T20:32:40.217Z,24.09
2022-08-07T20:35:16.023Z,23.98
2022-08-07T20:37:57.758Z,24.20
2022-08-07T20:40:32.741Z,23.86
2022-08-07T20:43:03.705Z,23.84
2022-08-07T20:46:26.874Z,23.89
2022-08-07T20:48:30.770Z,23.70
2022-08-07T20:51:03.174Z,23.50
2022-08-07T20:54:04.369Z,23.64
2022-08-07T20:56:34.549Z,23.56
2022-08-07T20:59:06.004Z,23.55
2022-08-07T21:01:45.337Z,23.53
2022-08-07T21:04:22.215Z,23.41
2022-08-07T21:06:53.632Z,23.46
2022-08-07T21:09:24.555Z,23.39
2022-08-07T21:11:57.470Z,23.21
2022-08-07T21:14:34.839Z,23.21
2022-08-07T21:18:03.404Z,23.08
2022-08-07T21:20:00.796Z,23.25
2022-08-07T21:22:53.517Z,23.14
2022-08-07T21:25:38.643Z,22.97
2022-08-07T21:28:16.881Z,22.91
2022-08-07T21:30:50.228Z,22.88
2022-08-07T21:33:22.825Z,22.84
2022-08-07T21:36:11.925Z,22.84
2022-08-07T21:39:46.259Z,22.81
2022-08-07T21:42:10.678Z,22.72
2022-08-07T21:44:55.302Z,22.55
2022-08-07T21:47:46.651Z,22.64
2022-08-07T21:50:25.153Z,22.50
2022-08-07T21:53:07.759Z,22.45
2022-08-07T21:55:47.451Z,22.38
2022-08-07T21:58:40.130Z,22.41
2022-08-07T22:02:11.361Z,22.45
2022-08-07T22:04:35.212Z,22.28
2022-08-07T22:07:20.382Z,22.19
2022-08-07T22:09:55.476Z,22.08
2022-08-07T22:12:32.363Z,22.22
2022-08-07T22:16:38.995Z,22.00
2022-08-07T22:18:07.024Z,22.09
2022-08-07T22:21:01.414Z,22.00
2022-08-07T22:23:52.529Z,22.08
2022-08-07T22:26:52.958Z,21.93
2022-08-07T22:29:47.330Z,21.81
2022-08-07T22:32:52.873Z,21.88
2022-08-07T22:35:23.316Z,21.64
2022-08-07T22:38:07.928Z,21.74
2022-08-07T22:40:52.498Z,21.65
2022-08-07T22:43:44.258Z,21.65
2022-08-07T22:47:02.483Z,21.52
2022-08-07T22:49:51.619Z,21.46
2022-08-07T22:52:37.476Z,21.81
2022-08-07T22:55:30.201Z,21.53
2022-08-07T22:57:59.584Z,21.42
2022-08-07T23:00:40.625Z,21.43
2022-08-07T23:03:58.548Z,21.28
2022-08-07T23:06:52.078Z,21.47
2022-08-07T23:10:06.206Z,21.31
2022-08-07T23:13:06.305Z,21.15
2022-08-07T23:16:07.148Z,21.17
2022-08-07T23:19:16.251Z,21.10
2022-08-07T23:22:04.130Z,20.99
2022-08-07T23:24:45.462Z,20.84
2022-08-07T23:28:21.310Z,20.99
2022-08-07T23:31:06.832Z,20.83
2022-08-07T23:34:36.660Z,20.87
2022-08-07T23:37:19.986Z,20.71
2022-08-07T23:40:11.458Z,20.63
2022-08-07T23:42:53.430Z,20.61
2022-08-07T23:46:01.776Z,20.48
2022-08-07T23:48:40.710Z,20.44
2022-08-07T23:53:01.972Z,20.32
2022-08-07T23:54:20.039Z,20.33
2022-08-07T23:57:28.005Z,20.27
